BGW weather

Baghdad International Airport
Baghdad, Baghdad Governorate, Iraq

Public forecast

Using degrees Celsius for public forecast. Weather courtesy of forecast.io.

METAR (pilot weather report)

Retrieved 2019/04/21 04:00 UTC (38 minutes ago):

ORBI 210400Z 09008KT CAVOK 18/05 Q1011 NOSIG

TAF (pilot weather forecast)

Forecast is more than 12 hours old.

Retrieved 2019/04/20 00:45 UTC (1 day ago):

TAF TAF ORBI 202300Z 2100/2124 VRB03KT 8000 NSC BECMG 2103/2105 18008KT 4000 DU SCT030 TEMPO 2116/2124 -SHRA BKN030 BKN070